Time;durP1;ratioP1;P1;durP2;ratioP2;P2;SDS_P1;SDS_P2;PMS_P1;PMS_P2;Temp;Humidity;BMP_temperature;BMP_pressure;BME280_temperature;BME280_humidity;BME280_pressure;Samples;Min_cycle;Max_cycle;Signal;HPM_P1;HPM_P2
2022/08/30 00:02:53;;;;;;;3.55;3.00;;;;;;;17.18;57.14;101275.63;5027787;28;20246;-23
2022/08/30 00:05:18;;;;;;;3.30;3.00;;;;;;;17.13;56.73;101278.41;5033947;28;20033;-23
2022/08/30 00:07:44;;;;;;;4.68;3.53;;;;;;;17.13;56.77;101277.53;5039258;28;20029;-23
2022/08/30 00:10:09;;;;;;;4.57;4.05;;;;;;;17.07;57.11;101278.56;5037430;28;20401;-23
2022/08/30 00:12:35;;;;;;;5.28;3.60;;;;;;;17.05;57.09;101286.59;5044320;28;20032;-23
2022/08/30 00:15:01;;;;;;;3.88;3.47;;;;;;;17.05;57.21;101283.03;5037936;28;20022;-23
2022/08/30 00:17:27;;;;;;;4.03;3.38;;;;;;;17.00;57.24;101280.50;5015506;28;20095;-23
2022/08/30 00:19:52;;;;;;;4.47;3.83;;;;;;;17.01;57.21;101284.03;5053005;28;20029;-23
2022/08/30 00:22:17;;;;;;;4.30;3.00;;;;;;;16.94;57.11;101283.31;5043456;28;20029;-23
2022/08/30 00:24:51;;;;;;;4.80;3.85;;;;;;;16.89;57.22;101286.09;5036754;28;20026;-23
2022/08/30 00:27:17;;;;;;;3.42;3.05;;;;;;;16.87;57.51;101279.94;5036351;28;20025;-23
2022/08/30 00:29:42;;;;;;;6.80;4.25;;;;;;;16.87;57.40;101284.41;5039605;28;20029;-23
2022/08/30 00:32:07;;;;;;;4.30;3.90;;;;;;;16.85;57.26;101289.75;5031895;28;20030;-23
2022/08/30 00:34:33;;;;;;;4.50;3.35;;;;;;;16.80;57.29;101292.53;5032073;28;20025;-23
2022/08/30 00:37:23;;;;;;;3.85;3.55;;;;;;;16.75;57.38;101285.56;5030716;28;20021;-23
2022/08/30 00:39:51;;;;;;;6.05;4.15;;;;;;;16.75;57.54;101283.81;5031241;28;20486;-23
2022/08/30 00:42:20;;;;;;;5.15;3.40;;;;;;;16.71;57.53;101291.91;5049684;28;20116;-23
2022/08/30 00:44:46;;;;;;;4.32;3.80;;;;;;;16.67;57.52;101291.97;5039862;28;20053;-23
2022/08/30 00:47:12;;;;;;;6.72;3.47;;;;;;;16.65;57.55;101283.16;5013166;28;20404;-23
2022/08/30 00:49:41;;;;;;;5.38;4.68;;;;;;;16.61;57.82;101280.59;5022396;28;20037;-23
2022/08/30 00:52:07;;;;;;;3.83;3.47;;;;;;;16.61;57.62;101293.91;5030461;28;20087;-23
2022/08/30 00:54:33;;;;;;;5.53;3.28;;;;;;;16.58;57.57;101291.31;5013746;28;20037;-23
2022/08/30 00:56:59;;;;;;;4.50;3.90;;;;;;;16.53;57.92;101294.09;5011220;28;20041;-23
2022/08/30 00:59:25;;;;;;;4.53;3.80;;;;;;;16.51;57.73;101286.13;5029080;28;20030;-23
2022/08/30 01:01:50;;;;;;;3.47;3.13;;;;;;;16.45;57.76;101288.97;5013612;28;20362;-23
2022/08/30 01:04:22;;;;;;;4.28;3.20;;;;;;;16.43;57.93;101293.44;5012561;28;20041;-23
2022/08/30 01:06:47;;;;;;;4.55;3.75;;;;;;;16.45;57.68;101291.63;5009640;28;20037;-23
2022/08/30 01:09:13;;;;;;;5.47;4.22;;;;;;;16.42;57.89;101287.25;5028935;28;20044;-23
2022/08/30 01:11:40;;;;;;;5.13;3.58;;;;;;;16.41;57.79;101285.47;5030131;28;20771;-23
2022/08/30 01:14:06;;;;;;;6.20;3.88;;;;;;;16.39;57.94;101291.75;5030727;28;20025;-23
2022/08/30 01:16:35;;;;;;;9.00;4.03;;;;;;;16.35;58.03;101287.44;5030626;28;20465;-23
2022/08/30 01:19:01;;;;;;;4.57;3.72;;;;;;;16.36;57.98;101287.41;5040694;28;20017;-23
2022/08/30 01:21:41;;;;;;;5.28;3.60;;;;;;;16.33;57.79;101294.56;5010066;28;20379;-23
2022/08/30 01:24:08;;;;;;;4.20;3.72;;;;;;;16.29;57.88;101292.00;5034033;28;20025;-23
2022/08/30 01:26:35;;;;;;;4.07;3.33;;;;;;;16.28;57.92;101287.56;5018077;28;20022;-23
2022/08/30 01:29:07;;;;;;;4.13;3.53;;;;;;;16.24;58.05;101277.91;5028824;28;20025;-23
2022/08/30 01:31:35;;;;;;;4.03;3.30;;;;;;;16.22;58.26;101282.41;5021218;28;20026;-23
2022/08/30 01:34:04;;;;;;;4.75;3.60;;;;;;;16.23;57.94;101292.13;5031888;28;20017;-22
2022/08/30 01:36:30;;;;;;;4.22;3.75;;;;;;;16.14;58.07;101281.69;5039330;28;20032;-23
2022/08/30 01:38:56;;;;;;;4.25;3.80;;;;;;;16.10;58.43;101291.53;5035087;28;20488;-23
2022/08/30 01:41:31;;;;;;;4.40;4.00;;;;;;;16.12;58.25;101289.72;5033363;28;20017;-23
2022/08/30 01:43:58;;;;;;;4.10;3.70;;;;;;;16.10;58.29;101290.63;5032474;28;20032;-23
2022/08/30 01:46:26;;;;;;;4.93;3.83;;;;;;;16.07;58.38;101285.41;5000934;28;20022;-23
2022/08/30 01:48:53;;;;;;;4.95;3.60;;;;;;;16.03;58.18;101290.78;5004624;28;20051;-23
2022/08/30 01:51:20;;;;;;;6.53;3.35;;;;;;;16.01;58.39;101289.94;5036195;28;20388;-23
2022/08/30 01:53:46;;;;;;;6.32;3.88;;;;;;;15.99;58.54;101291.78;5024541;28;20013;-23
2022/08/30 01:56:18;;;;;;;6.47;3.63;;;;;;;16.01;58.62;101291.75;5046316;28;20029;-23
2022/08/30 01:58:46;;;;;;;4.53;3.72;;;;;;;15.97;58.78;101290.91;5017099;28;20393;-23
2022/08/30 02:01:14;;;;;;;5.85;3.70;;;;;;;15.94;58.75;101284.78;5012083;28;20029;-23
2022/08/30 02:03:41;;;;;;;5.28;3.58;;;;;;;15.94;58.99;101290.94;5016779;28;20456;-23
2022/08/30 02:06:09;;;;;;;4.97;3.40;;;;;;;15.91;58.84;101291.03;5034684;28;20389;-23
2022/08/30 02:08:39;;;;;;;3.70;3.38;;;;;;;15.89;58.81;101308.81;5037319;28;20092;-23
2022/08/30 02:11:06;;;;;;;5.53;3.97;;;;;;;15.92;58.60;101298.09;5036627;28;20025;-22
2022/08/30 02:13:32;;;;;;;4.47;3.72;;;;;;;15.89;58.65;101296.38;5034896;28;20025;-22
2022/08/30 02:16:00;;;;;;;4.68;3.03;;;;;;;15.87;59.06;101297.34;5033198;28;20049;-23
2022/08/30 02:18:26;;;;;;;4.00;3.60;;;;;;;15.90;59.17;101299.91;5035263;28;20025;-23
2022/08/30 02:20:51;;;;;;;3.45;3.15;;;;;;;15.84;58.72;101300.06;5017473;28;20049;-22
2022/08/30 02:23:17;;;;;;;3.95;3.50;;;;;;;15.82;58.84;101294.75;5016709;28;20040;-22
2022/08/30 02:25:45;;;;;;;4.68;3.55;;;;;;;15.87;59.27;101302.66;4997302;28;20247;-24
2022/08/30 02:28:11;;;;;;;8.32;3.20;;;;;;;15.84;59.07;101300.06;5023369;28;20108;-23
2022/08/30 02:30:36;;;;;;;3.38;3.00;;;;;;;15.83;59.19;101303.59;5033220;28;20104;-23
2022/08/30 02:33:03;;;;;;;4.70;3.85;;;;;;;15.81;59.02;101308.09;5030508;28;20083;-23
2022/08/30 02:35:28;;;;;;;3.55;3.05;;;;;;;15.76;59.40;101297.53;5030506;28;20087;-24
2022/08/30 02:37:55;;;;;;;4.38;3.95;;;;;;;15.73;59.33;101297.59;5006466;28;20489;-23
2022/08/30 02:40:21;;;;;;;3.72;3.30;;;;;;;15.76;59.38;101295.78;4998607;28;20396;-23
2022/08/30 02:42:46;;;;;;;3.83;2.88;;;;;;;15.71;59.64;101294.97;5033947;28;20397;-23
2022/08/30 02:45:12;;;;;;;4.50;3.17;;;;;;;15.72;59.40;101294.09;5030835;28;20029;-23
2022/08/30 02:47:38;;;;;;;4.57;3.38;;;;;;;15.72;59.57;101287.88;5019674;28;20462;-22
2022/08/30 02:50:05;;;;;;;3.58;3.28;;;;;;;15.74;59.81;101289.59;5035057;28;20022;-23
2022/08/30 02:52:31;;;;;;;2.80;2.60;;;;;;;15.72;60.13;101277.25;5028019;28;20025;-24
2022/08/30 02:54:56;;;;;;;3.25;3.05;;;;;;;15.68;60.06;101287.09;5003881;28;20036;-23
2022/08/30 02:57:21;;;;;;;3.97;2.72;;;;;;;15.67;59.87;101282.66;5036687;28;20022;-23
2022/08/30 02:59:47;;;;;;;3.60;2.85;;;;;;;15.64;59.67;101274.75;5020707;28;20094;-23
2022/08/30 03:02:13;;;;;;;3.17;2.75;;;;;;;15.64;60.04;101277.41;4996602;28;20538;-23
2022/08/30 03:04:39;;;;;;;3.38;2.50;;;;;;;15.65;60.13;101274.69;5036114;28;20028;-24
2022/08/30 03:07:07;;;;;;;3.15;2.85;;;;;;;15.66;59.71;101275.59;5048066;28;20295;-23
2022/08/30 03:09:33;;;;;;;6.68;2.47;;;;;;;15.62;60.08;101274.78;5041892;28;20021;-23
2022/08/30 03:11:59;;;;;;;3.63;2.58;;;;;;;15.63;60.31;101272.97;5015877;28;20061;-23
2022/08/30 03:14:24;;;;;;;3.78;2.90;;;;;;;15.59;60.23;101279.28;5029140;28;20079;-23
2022/08/30 03:19:38;;;;;;;2.50;2.30;;;;;;;15.59;60.34;101281.94;5036219;28;20119;-28
2022/08/30 03:22:05;;;;;;;3.00;2.30;;;;;;;15.59;60.27;101295.22;5058006;28;20071;-24
2022/08/30 03:24:31;;;;;;;2.08;1.95;;;;;;;15.55;60.59;101288.22;5046137;28;20104;-24
2022/08/30 03:26:57;;;;;;;2.55;2.35;;;;;;;15.52;60.11;101279.41;5043304;28;20036;-24
2022/08/30 03:29:22;;;;;;;2.83;2.30;;;;;;;15.54;60.15;101286.47;5049224;28;20025;-24
2022/08/30 03:31:48;;;;;;;2.47;2.28;;;;;;;15.55;60.42;101290.88;5041915;28;20031;-24
2022/08/30 03:34:13;;;;;;;1.80;1.70;;;;;;;15.56;60.24;101289.97;5028814;28;20132;-25
2022/08/30 03:36:38;;;;;;;2.88;2.10;;;;;;;15.49;60.54;101287.44;5042803;28;20029;-24
2022/08/30 03:39:05;;;;;;;2.63;2.42;;;;;;;15.50;60.60;101286.53;5049269;28;20468;-24
2022/08/30 03:41:31;;;;;;;2.10;1.90;;;;;;;15.47;60.68;101289.25;5010452;28;20029;-25
2022/08/30 03:43:59;;;;;;;2.33;2.13;;;;;;;15.48;60.84;101293.66;5043123;28;20056;-24
2022/08/30 03:46:24;;;;;;;2.00;1.83;;;;;;;15.47;60.61;101294.56;5032157;28;20040;-26
2022/08/30 03:48:51;;;;;;;2.08;1.80;;;;;;;15.47;60.81;101289.25;5043941;28;20033;-24
2022/08/30 03:51:17;;;;;;;2.30;2.10;;;;;;;15.48;61.03;101296.31;5037423;28;20083;-24
2022/08/30 03:53:43;;;;;;;1.80;1.70;;;;;;;15.48;60.83;101288.34;5027979;28;20021;-24
2022/08/30 03:56:09;;;;;;;2.50;2.30;;;;;;;15.48;60.84;101293.66;5027724;28;20391;-24
2022/08/30 03:58:34;;;;;;;3.97;2.10;;;;;;;15.53;61.18;101296.22;5023646;28;20033;-24
2022/08/30 04:01:00;;;;;;;2.22;2.03;;;;;;;15.47;61.29;101294.56;5051051;28;20028;-24
2022/08/30 04:03:25;;;;;;;2.45;2.10;;;;;;;15.43;61.79;101290.22;5043713;28;20028;-24
2022/08/30 04:05:52;;;;;;;1.70;1.42;;;;;;;15.41;61.32;101284.06;5047847;28;20107;-24
2022/08/30 04:08:19;;;;;;;2.22;2.03;;;;;;;15.42;61.37;101285.81;5013736;28;20024;-24
2022/08/30 04:10:47;;;;;;;3.85;2.03;;;;;;;15.46;61.32;101290.16;5046660;28;20082;-24
2022/08/30 04:13:14;;;;;;;3.55;2.10;;;;;;;15.43;61.48;101295.53;5035899;28;20104;-24
2022/08/30 04:15:39;;;;;;;2.47;1.63;;;;;;;15.42;61.71;101291.13;5049279;28;20110;-24
2022/08/30 04:18:04;;;;;;;1.88;1.63;;;;;;;15.39;61.46;101299.16;5049462;28;20044;-25
2022/08/30 04:20:31;;;;;;;2.03;1.75;;;;;;;15.37;61.40;101290.31;5039885;28;20029;-24
2022/08/30 04:22:56;;;;;;;1.70;1.58;;;;;;;15.42;61.36;101296.44;5042628;28;20033;-24
2022/08/30 04:25:22;;;;;;;3.08;2.08;;;;;;;15.42;61.60;101301.75;5050738;28;20032;-24
2022/08/30 04:27:48;;;;;;;1.92;1.63;;;;;;;15.41;61.72;101300.03;5040591;28;20531;-24
2022/08/30 04:30:15;;;;;;;1.90;1.80;;;;;;;15.43;61.64;101297.31;5039445;28;20025;-24
2022/08/30 04:32:42;;;;;;;2.88;2.03;;;;;;;15.41;61.53;101302.69;5039453;28;20033;-24
2022/08/30 04:35:08;;;;;;;1.75;1.65;;;;;;;15.40;61.85;101300.91;5026075;28;20025;-24
2022/08/30 04:37:34;;;;;;;2.63;1.90;;;;;;;15.38;62.09;101308.91;5041639;28;20385;-24
2022/08/30 04:39:59;;;;;;;1.83;1.67;;;;;;;15.40;61.60;101308.88;5051975;28;20085;-24
2022/08/30 04:42:28;;;;;;;2.17;1.98;;;;;;;15.41;61.66;101315.09;5051964;28;20475;-24
2022/08/30 04:44:54;;;;;;;1.80;1.70;;;;;;;15.39;61.73;101309.78;5048415;28;20036;-24
2022/08/30 04:47:19;;;;;;;1.73;1.55;;;;;;;15.41;62.05;101313.31;5041796;28;20095;-25
2022/08/30 04:49:44;;;;;;;2.17;1.98;;;;;;;15.39;61.76;101320.41;5031831;28;20028;-24
2022/08/30 04:52:13;;;;;;;2.25;2.05;;;;;;;15.35;61.89;101318.72;5051185;28;20094;-24
2022/08/30 04:54:38;;;;;;;3.50;1.90;;;;;;;15.37;62.26;101322.22;5049378;28;20057;-24
2022/08/30 04:57:06;;;;;;;2.17;1.98;;;;;;;15.38;62.22;101324.00;5046864;28;20559;-23
2022/08/30 04:59:32;;;;;;;1.95;1.75;;;;;;;15.34;61.67;101333.78;5049453;28;20029;-24
2022/08/30 05:01:58;;;;;;;2.33;1.75;;;;;;;15.37;61.67;101331.09;5042301;28;20044;-24
2022/08/30 05:04:23;;;;;;;1.67;1.58;;;;;;;15.36;61.82;101341.75;5032271;28;20066;-24
2022/08/30 05:06:49;;;;;;;2.13;1.92;;;;;;;15.34;61.94;101343.56;5022352;28;20024;-24
2022/08/30 05:09:16;;;;;;;1.80;1.70;;;;;;;15.33;61.94;101342.69;5049750;28;20082;-24
2022/08/30 05:11:42;;;;;;;2.83;2.03;;;;;;;15.34;62.06;101344.41;5052400;28;20040;-24
2022/08/30 05:14:08;;;;;;;2.72;2.20;;;;;;;15.37;62.16;101354.13;5045358;28;20143;-24
2022/08/30 05:16:33;;;;;;;2.22;2.00;;;;;;;15.35;62.47;101362.16;5027045;28;20469;-24
2022/08/30 05:18:59;;;;;;;2.17;1.98;;;;;;;15.36;62.18;101353.25;5037885;28;20522;-24
2022/08/30 05:21:26;;;;;;;2.72;1.92;;;;;;;15.37;62.49;101357.66;5044212;28;20087;-24
2022/08/30 05:23:53;;;;;;;2.70;2.30;;;;;;;15.39;62.32;101365.59;5017714;28;20026;-24
2022/08/30 05:26:22;;;;;;;3.95;2.25;;;;;;;15.39;62.59;101373.59;5047095;28;20497;-24
2022/08/30 05:28:47;;;;;;;2.45;2.13;;;;;;;15.41;62.65;101363.81;5054845;28;20035;-24
2022/08/30 05:31:23;;;;;;;2.47;2.15;;;;;;;15.43;62.63;101375.28;5036307;28;20025;-24
2022/08/30 05:33:49;;;;;;;2.38;2.17;;;;;;;15.39;62.59;101363.84;5038332;28;20083;-24
2022/08/30 05:36:17;;;;;;;2.25;2.13;;;;;;;15.43;62.86;101358.44;5037585;28;20516;-24
2022/08/30 05:38:43;;;;;;;2.10;1.95;;;;;;;15.46;63.64;101364.59;5055061;28;20112;-21
2022/08/30 05:41:08;;;;;;;2.58;2.33;;;;;;;15.49;63.10;101366.31;5050474;28;20112;-21
2022/08/30 05:43:35;;;;;;;2.83;2.45;;;;;;;15.55;63.34;101367.97;5010120;28;20489;-21
2022/08/30 05:46:10;;;;;;;2.50;2.17;;;;;;;15.56;63.11;101369.72;5017848;28;20112;-22
2022/08/30 05:48:36;;;;;;;2.50;2.30;;;;;;;15.63;63.59;101361.63;5048434;28;20068;-22
2022/08/30 05:51:05;;;;;;;2.65;2.45;;;;;;;15.68;65.12;101364.19;5028493;28;20053;-22
2022/08/30 05:53:31;;;;;;;2.97;2.65;;;;;;;15.66;65.02;101360.66;5053693;28;20399;-21
2022/08/30 05:55:56;;;;;;;3.25;2.72;;;;;;;15.66;64.57;101363.34;5054746;28;20024;-21
2022/08/30 05:58:22;;;;;;;3.25;2.90;;;;;;;15.73;64.35;101361.41;5054722;28;20070;-22
2022/08/30 06:00:47;;;;;;;5.00;3.45;;;;;;;15.75;64.75;101371.16;5035216;28;20029;-21
2022/08/30 06:03:12;;;;;;;5.90;4.15;;;;;;;15.76;64.49;101375.56;5054048;28;20029;-22
2022/08/30 06:05:37;;;;;;;3.50;3.20;;;;;;;15.82;64.76;101366.56;5053178;28;20078;-22
2022/08/30 06:08:03;;;;;;;5.32;4.82;;;;;;;15.88;65.99;101381.53;5054110;28;20028;-21
2022/08/30 06:10:29;;;;;;;5.25;3.58;;;;;;;15.89;64.45;101380.63;5036396;28;20036;-22
2022/08/30 06:12:54;;;;;;;3.92;3.30;;;;;;;15.95;65.79;101383.19;5028042;28;20094;-21
2022/08/30 06:15:19;;;;;;;6.78;3.55;;;;;;;15.98;66.12;101390.25;5053143;28;20009;-21
2022/08/30 06:17:46;;;;;;;5.35;4.68;;;;;;;15.97;65.43;101388.50;5053419;28;20086;-22
2022/08/30 06:20:12;;;;;;;5.20;4.57;;;;;;;15.99;65.57;101390.22;5054086;28;20025;-21
2022/08/30 06:22:39;;;;;;;6.05;4.53;;;;;;;16.05;66.60;101388.31;5043226;28;20028;-21
2022/08/30 06:25:05;;;;;;;5.03;3.63;;;;;;;16.05;64.25;101396.31;5041096;28;20295;-21
2022/08/30 06:27:30;;;;;;;5.00;4.45;;;;;;;16.09;68.27;101393.56;5053156;28;20067;-21
2022/08/30 06:29:55;;;;;;;4.28;3.60;;;;;;;16.17;66.51;101390.72;5053831;28;20029;-22
2022/08/30 06:32:21;;;;;;;5.00;4.43;;;;;;;16.22;67.27;101383.53;5045895;28;20029;-23
2022/08/30 06:34:47;;;;;;;5.25;4.10;;;;;;;16.22;67.17;101388.84;5049853;28;20029;-22
2022/08/30 06:37:12;;;;;;;4.65;3.85;;;;;;;16.27;64.72;101392.28;5016437;28;20120;-21
2022/08/30 06:39:37;;;;;;;4.90;4.28;;;;;;;16.31;67.89;101394.88;5036086;28;20032;-22
2022/08/30 06:42:03;;;;;;;6.18;4.03;;;;;;;16.36;64.21;101392.97;5041765;28;20493;-22
2022/08/30 06:44:28;;;;;;;4.88;3.97;;;;;;;16.44;64.81;101391.03;5034604;28;20048;-21
2022/08/30 06:46:53;;;;;;;5.22;4.57;;;;;;;16.46;64.61;101394.53;5043205;28;20029;-22
2022/08/30 06:49:19;;;;;;;6.07;5.00;;;;;;;16.53;63.59;101392.59;5054078;28;20027;-22
2022/08/30 06:51:45;;;;;;;5.13;4.30;;;;;;;16.54;66.28;101389.91;5043744;28;20029;-25
2022/08/30 06:54:12;;;;;;;5.65;4.22;;;;;;;16.55;64.63;101394.31;5048975;28;20021;-24
2022/08/30 06:56:38;;;;;;;5.07;4.30;;;;;;;16.62;65.84;101395.06;5053657;28;20384;-24
2022/08/30 06:59:04;;;;;;;7.68;4.47;;;;;;;16.62;67.62;101399.50;5035866;28;20443;-24
2022/08/30 07:01:29;;;;;;;5.53;4.57;;;;;;;16.64;67.28;101382.59;5038794;28;20035;-24
2022/08/30 07:03:55;;;;;;;7.50;4.78;;;;;;;16.70;66.43;101383.38;5015669;28;20147;-24
2022/08/30 07:06:21;;;;;;;5.70;4.53;;;;;;;16.72;64.73;101385.09;5037958;28;20417;-24
2022/08/30 07:08:48;;;;;;;7.03;4.47;;;;;;;16.80;63.73;101377.78;5052197;28;20036;-24
2022/08/30 07:11:14;;;;;;;6.28;4.75;;;;;;;16.80;66.63;101383.09;5052538;28;20029;-24
2022/08/30 07:13:39;;;;;;;5.32;4.50;;;;;;;16.87;64.68;101383.81;5041870;28;20029;-24
2022/08/30 07:16:10;;;;;;;6.53;4.72;;;;;;;16.94;65.99;101389.88;5017432;28;20032;-25
2022/08/30 07:18:54;;;;;;;4.97;4.45;;;;;;;16.96;65.11;101388.06;5018515;28;20037;-24
2022/08/30 07:21:23;;;;;;;6.00;4.97;;;;;;;17.00;66.46;101389.72;5026490;28;20052;-24
2022/08/30 07:23:49;;;;;;;5.13;4.57;;;;;;;17.05;66.18;101397.63;5052884;28;20017;-24
2022/08/30 07:26:17;;;;;;;6.75;5.20;;;;;;;17.10;66.08;101392.22;5051036;28;20100;-23
2022/08/30 07:28:44;;;;;;;4.60;4.20;;;;;;;17.16;66.91;101389.38;5033788;28;20481;-24
2022/08/30 07:31:11;;;;;;;5.22;4.55;;;;;;;17.19;66.88;101389.31;5041210;28;20543;-25
2022/08/30 07:33:37;;;;;;;5.55;4.70;;;;;;;17.23;67.34;101390.97;5051967;28;20104;-24
2022/08/30 07:36:03;;;;;;;5.65;5.15;;;;;;;17.25;67.04;101391.81;5052748;28;20099;-27
2022/08/30 07:38:29;;;;;;;5.18;4.35;;;;;;;17.30;67.03;101391.69;5032981;28;20543;-24
2022/08/30 07:40:56;;;;;;;5.43;4.80;;;;;;;17.37;67.08;101392.44;5037491;28;20017;-24
2022/08/30 07:43:22;;;;;;;5.35;4.85;;;;;;;17.43;66.77;101401.13;5033075;28;20040;-22
2022/08/30 07:45:47;;;;;;;4.97;4.47;;;;;;;17.51;67.43;101389.38;5032870;28;20025;-24
2022/08/30 07:48:13;;;;;;;7.35;4.50;;;;;;;17.60;66.36;101393.59;5049322;28;20063;-22
2022/08/30 07:50:43;;;;;;;6.72;4.60;;;;;;;17.67;66.58;101396.03;5027996;28;20076;-23
2022/08/30 07:53:08;;;;;;;6.28;4.97;;;;;;;17.75;65.87;101395.84;5037044;28;20022;-21
2022/08/30 07:55:33;;;;;;;5.35;4.80;;;;;;;17.83;66.95;101396.50;5034486;28;20031;-22
2022/08/30 07:57:58;;;;;;;7.85;5.03;;;;;;;17.92;66.69;101398.03;5052526;28;20025;-22
2022/08/30 08:00:24;;;;;;;6.10;4.85;;;;;;;18.02;67.52;101404.00;5043592;28;20017;-22
2022/08/30 08:02:49;;;;;;;5.43;4.93;;;;;;;18.13;66.87;101411.69;5039741;28;20074;-22
2022/08/30 08:05:15;;;;;;;5.68;5.18;;;;;;;18.19;67.57;101406.19;5032634;28;20029;-22
2022/08/30 08:07:40;;;;;;;9.90;5.68;;;;;;;18.32;67.21;101408.50;5032628;28;20477;-21
2022/08/30 08:10:06;;;;;;;6.95;5.22;;;;;;;18.42;68.08;101407.31;5041451;28;20024;-22
2022/08/30 08:12:31;;;;;;;5.65;4.95;;;;;;;18.48;67.86;101414.25;5052237;28;20115;-22
2022/08/30 08:14:56;;;;;;;5.85;5.25;;;;;;;18.57;67.51;101416.63;5052177;28;20388;-21
2022/08/30 08:17:22;;;;;;;5.50;5.00;;;;;;;18.69;67.36;101414.50;5051787;28;20025;-22
2022/08/30 08:19:47;;;;;;;6.00;5.40;;;;;;;18.75;67.72;101414.31;5050530;28;20016;-22
2022/08/30 08:22:13;;;;;;;5.80;5.00;;;;;;;18.82;67.95;101412.31;5052021;28;20020;-22
2022/08/30 08:24:39;;;;;;;5.18;4.70;;;;;;;18.95;67.55;101418.13;5051727;28;20381;-22
2022/08/30 08:27:04;;;;;;;5.53;5.03;;;;;;;19.05;67.66;101414.25;5052327;28;20036;-21
2022/08/30 08:29:30;;;;;;;5.45;4.95;;;;;;;19.20;66.75;101430.72;5051744;28;20032;-21
2022/08/30 08:31:56;;;;;;;5.95;5.20;;;;;;;19.27;66.72;101421.56;5046156;28;20028;-22
2022/08/30 08:34:23;;;;;;;6.28;5.55;;;;;;;19.40;66.73;101413.13;5036355;28;20373;-22
2022/08/30 08:36:49;;;;;;;5.38;4.88;;;;;;;19.51;66.32;101416.31;5052334;28;20383;-22
2022/08/30 08:39:29;;;;;;;5.85;5.35;;;;;;;19.65;65.99;101418.50;5052018;28;20435;-22
2022/08/30 08:42:31;;;;;;;5.65;5.15;;;;;;;19.86;65.52;101427.56;5048613;28;20066;-21
2022/08/30 08:45:12;;;;;;;5.15;4.70;;;;;;;20.00;65.29;101428.88;5040378;28;20021;-21
2022/08/30 08:47:58;;;;;;;9.35;4.70;;;;;;;20.09;65.10;101427.66;5033976;28;20057;-21
2022/08/30 08:50:24;;;;;;;5.50;5.00;;;;;;;20.20;64.80;101424.56;5033727;28;20029;-21
2022/08/30 08:55:45;;;;;;;5.45;4.63;;;;;;;20.36;64.82;101420.38;5052066;28;20036;-22
2022/08/30 08:58:22;;;;;;;5.53;5.03;;;;;;;20.50;64.24;101427.88;5033231;28;20037;-21
2022/08/30 09:00:48;;;;;;;6.55;4.70;;;;;;;20.59;64.02;101432.00;5051192;28;20480;-21
2022/08/30 09:03:15;;;;;;;5.50;4.82;;;;;;;20.67;63.70;101426.34;5058723;28;20025;-21
2022/08/30 09:05:42;;;;;;;4.88;4.43;;;;;;;20.75;63.58;101432.25;5034303;28;20027;-21
2022/08/30 09:08:19;;;;;;;6.35;4.60;;;;;;;20.87;63.00;101425.53;5022442;28;20112;-22
2022/08/30 09:10:52;;;;;;;6.60;5.35;;;;;;;20.99;63.49;101426.00;5038194;28;20017;-22
2022/08/30 09:13:18;;;;;;;6.30;5.07;;;;;;;21.05;63.41;101433.81;5032146;28;20033;-23
2022/08/30 09:15:43;;;;;;;5.55;5.05;;;;;;;21.10;63.48;101421.06;5043524;28;20021;-22
2022/08/30 09:21:30;;;;;;;5.47;4.97;;;;;;;21.22;62.95;101424.16;5051719;28;20036;-30
2022/08/30 09:23:58;;;;;;;7.68;4.68;;;;;;;21.34;62.81;101428.16;5050130;28;20029;-31
2022/08/30 09:26:30;;;;;;;7.55;4.88;;;;;;;21.46;62.59;101422.25;5051921;28;20029;-31
2022/08/30 09:28:57;;;;;;;5.43;4.88;;;;;;;21.52;62.21;101422.00;5066429;28;20028;-31
2022/08/30 09:31:24;;;;;;;5.65;4.72;;;;;;;21.62;62.35;101422.47;5071237;28;20028;-31
2022/08/30 09:37:24;;;;;;;6.68;5.68;;;;;;;21.77;61.70;101422.72;5054273;28;20039;-31
2022/08/30 09:39:49;;;;;;;5.03;4.63;;;;;;;21.82;61.64;101418.06;5071368;28;20032;-29
2022/08/30 09:42:20;;;;;;;5.00;4.60;;;;;;;21.98;61.59;101412.88;5071717;28;20494;-31
2022/08/30 09:44:45;;;;;;;4.85;4.45;;;;;;;22.09;61.20;101412.34;5057139;28;20082;-31
2022/08/30 09:47:30;;;;;;;4.97;4.47;;;;;;;22.18;60.78;101416.44;5073752;28;20032;-31
2022/08/30 09:50:16;;;;;;;8.02;4.55;;;;;;;22.27;60.24;101412.44;5074845;28;20028;-30
2022/08/30 09:52:55;;;;;;;5.10;4.70;;;;;;;22.33;60.17;101409.47;5066534;28;20024;-30
2022/08/30 09:56:01;;;;;;;5.57;4.75;;;;;;;22.36;60.15;101417.38;5074247;28;20023;-30
2022/08/30 09:59:04;;;;;;;5.80;4.60;;;;;;;22.41;60.09;101415.34;5073807;28;20039;-31
2022/08/30 10:01:36;;;;;;;5.38;4.88;;;;;;;22.54;60.09;101412.09;5072580;28;20024;-31
2022/08/30 10:04:39;;;;;;;4.47;4.07;;;;;;;22.60;60.34;101414.50;5060240;28;20028;-30
2022/08/30 10:07:42;;;;;;;5.63;4.68;;;;;;;22.67;59.76;101410.56;5070691;28;20439;-31
2022/08/30 10:10:26;;;;;;;5.20;4.63;;;;;;;22.76;59.62;101408.38;5047559;28;20036;-30
2022/08/30 10:13:13;;;;;;;7.70;5.72;;;;;;;22.87;59.51;101410.53;5067917;28;20082;-31
2022/08/30 10:16:08;;;;;;;5.55;4.68;;;;;;;22.93;59.06;101408.41;5074575;28;20032;-30
2022/08/30 10:18:42;;;;;;;5.57;5.07;;;;;;;23.00;59.06;101405.41;5073190;28;20510;-30
2022/08/30 10:21:37;;;;;;;4.72;4.43;;;;;;;23.06;59.06;101405.09;5052356;28;20431;-30
2022/08/30 10:24:06;;;;;;;5.40;4.93;;;;;;;23.16;58.64;101392.03;5054502;28;20036;-30
2022/08/30 10:26:39;;;;;;;4.88;4.38;;;;;;;23.21;58.63;101381.94;5071842;28;20109;-30
2022/08/30 10:29:16;;;;;;;5.30;4.82;;;;;;;23.26;58.49;101379.00;5049693;28;20032;-30
2022/08/30 10:32:18;;;;;;;5.82;5.30;;;;;;;23.31;58.25;101388.56;5055541;28;20024;-29
2022/08/30 10:34:49;;;;;;;5.35;4.95;;;;;;;23.34;57.98;101387.53;5064705;28;20028;-30
2022/08/30 10:37:24;;;;;;;5.72;5.22;;;;;;;23.38;57.99;101382.91;5072961;28;20476;-30
2022/08/30 10:41:11;;;;;;;5.47;5.00;;;;;;;23.37;57.82;101382.03;5073905;28;20052;-30
2022/08/30 10:42:48;;;;;;;6.47;5.65;;;;;;;23.39;57.92;101380.13;5073202;28;20035;-30
2022/08/30 10:45:15;;;;;;;6.50;5.35;;;;;;;23.41;57.86;101377.38;5072281;28;20078;-30
2022/08/30 10:47:48;;;;;;;6.30;5.72;;;;;;;23.42;57.92;101384.47;5053316;28;20476;-30
2022/08/30 10:50:21;;;;;;;6.10;5.50;;;;;;;23.50;58.12;101384.09;5054242;28;20025;-29
2022/08/30 10:53:11;;;;;;;6.65;6.05;;;;;;;23.54;58.05;101378.44;5040107;28;20107;-30
2022/08/30 10:55:44;;;;;;;6.13;5.35;;;;;;;23.66;57.67;101376.94;5054644;28;20017;-30
2022/08/30 10:58:10;;;;;;;5.50;5.05;;;;;;;23.76;57.49;101387.19;5041003;28;20504;-30
2022/08/30 11:00:49;;;;;;;6.20;5.63;;;;;;;23.84;57.71;101379.56;5073849;28;20032;-29
2022/08/30 11:03:35;;;;;;;5.97;5.40;;;;;;;23.96;57.20;101387.00;5065429;28;20036;-28
2022/08/30 11:06:24;;;;;;;5.88;5.22;;;;;;;24.05;56.82;101387.44;5054015;28;20029;-29
2022/08/30 11:09:47;;;;;;;6.80;5.80;;;;;;;24.08;56.61;101382.75;5063469;28;20430;-29
2022/08/30 11:12:37;;;;;;;8.45;5.85;;;;;;;24.06;56.49;101378.41;5070429;28;20287;-29
2022/08/30 11:15:16;;;;;;;6.13;5.60;;;;;;;24.09;56.27;101383.63;5061504;28;20396;-29
2022/08/30 11:17:56;;;;;;;7.03;5.60;;;;;;;24.08;56.21;101388.13;5072050;28;20060;-29
2022/08/30 11:20:41;;;;;;;5.80;5.30;;;;;;;24.18;56.09;101380.44;5073373;28;20051;-30
2022/08/30 11:23:13;;;;;;;5.85;5.35;;;;;;;24.28;56.23;101382.63;5072276;28;20037;-29
2022/08/30 11:25:59;;;;;;;6.00;5.50;;;;;;;24.35;56.20;101376.78;5073599;28;20055;-29
2022/08/30 11:28:33;;;;;;;6.78;5.80;;;;;;;24.43;55.61;101386.28;5072708;28;20033;-29
2022/08/30 11:31:17;;;;;;;6.05;5.50;;;;;;;24.53;55.87;101376.72;5071598;28;20470;-29
2022/08/30 11:33:49;;;;;;;7.47;5.93;;;;;;;24.60;55.73;101377.22;5064587;28;20031;-29
2022/08/30 11:36:30;;;;;;;6.43;5.80;;;;;;;24.72;55.33;101379.22;5073396;28;20202;-29
2022/08/30 11:38:55;;;;;;;5.75;5.25;;;;;;;24.84;55.35;101368.69;5072646;28;20048;-29
2022/08/30 11:41:41;;;;;;;6.63;6.13;;;;;;;24.97;54.52;101368.81;5071501;28;20043;-30
2022/08/30 11:44:21;;;;;;;6.35;5.82;;;;;;;25.07;54.41;101363.78;5071930;28;20290;-29
2022/08/30 11:46:48;;;;;;;6.25;5.65;;;;;;;25.08;54.66;101362.81;5065416;28;20537;-29
2022/08/30 11:49:19;;;;;;;5.18;4.72;;;;;;;25.21;54.30;101366.50;5072192;28;20035;-29